sensor_id;sensor_type;location;lat;lon;timestamp;P1;durP1;ratioP1;P2;durP2;ratioP2
80127;SDS011;69440;52.118;5.408;2024-01-30T00:00:43;11.00;;;7.00;;
80127;SDS011;69440;52.118;5.408;2024-01-30T00:03:10;13.55;;;7.10;;
80127;SDS011;69440;52.118;5.408;2024-01-30T00:05:37;12.10;;;7.05;;
80127;SDS011;69440;52.118;5.408;2024-01-30T00:08:03;12.32;;;6.63;;
80127;SDS011;69440;52.118;5.408;2024-01-30T00:10:30;10.75;;;6.50;;
80127;SDS011;69440;52.118;5.408;2024-01-30T00:12:57;13.85;;;7.35;;
80127;SDS011;69440;52.118;5.408;2024-01-30T00:15:23;12.88;;;6.90;;
80127;SDS011;69440;52.118;5.408;2024-01-30T00:17:49;11.48;;;6.63;;
80127;SDS011;69440;52.118;5.408;2024-01-30T00:20:18;12.65;;;7.15;;
80127;SDS011;69440;52.118;5.408;2024-01-30T00:22:45;12.48;;;7.18;;
80127;SDS011;69440;52.118;5.408;2024-01-30T00:25:12;13.40;;;6.95;;
80127;SDS011;69440;52.118;5.408;2024-01-30T00:27:38;13.75;;;6.50;;
80127;SDS011;69440;52.118;5.408;2024-01-30T00:30:05;12.75;;;6.90;;
80127;SDS011;69440;52.118;5.408;2024-01-30T00:32:33;12.02;;;6.68;;
80127;SDS011;69440;52.118;5.408;2024-01-30T00:34:59;11.80;;;7.10;;
80127;SDS011;69440;52.118;5.408;2024-01-30T00:37:26;10.93;;;6.72;;
80127;SDS011;69440;52.118;5.408;2024-01-30T00:39:52;11.68;;;6.55;;
80127;SDS011;69440;52.118;5.408;2024-01-30T00:42:19;11.00;;;6.57;;
80127;SDS011;69440;52.118;5.408;2024-01-30T00:44:45;11.82;;;6.78;;
80127;SDS011;69440;52.118;5.408;2024-01-30T00:47:12;12.38;;;6.93;;
80127;SDS011;69440;52.118;5.408;2024-01-30T00:49:38;13.48;;;6.82;;
80127;SDS011;69440;52.118;5.408;2024-01-30T00:52:05;13.82;;;7.70;;
80127;SDS011;69440;52.118;5.408;2024-01-30T00:54:32;13.60;;;7.03;;
80127;SDS011;69440;52.118;5.408;2024-01-30T00:56:58;11.07;;;6.80;;
80127;SDS011;69440;52.118;5.408;2024-01-30T00:59:25;11.77;;;6.20;;
80127;SDS011;69440;52.118;5.408;2024-01-30T01:01:51;11.65;;;7.20;;
80127;SDS011;69440;52.118;5.408;2024-01-30T01:04:18;12.00;;;6.38;;
80127;SDS011;69440;52.118;5.408;2024-01-30T01:06:45;10.60;;;6.15;;
80127;SDS011;69440;52.118;5.408;2024-01-30T01:09:11;12.23;;;6.88;;
80127;SDS011;69440;52.118;5.408;2024-01-30T01:11:38;13.00;;;6.90;;
80127;SDS011;69440;52.118;5.408;2024-01-30T01:14:05;9.77;;;6.82;;
80127;SDS011;69440;52.118;5.408;2024-01-30T01:16:31;13.05;;;7.00;;
80127;SDS011;69440;52.118;5.408;2024-01-30T01:18:58;10.75;;;5.78;;
80127;SDS011;69440;52.118;5.408;2024-01-30T01:21:26;10.68;;;7.07;;
80127;SDS011;69440;52.118;5.408;2024-01-30T01:23:53;11.50;;;6.70;;
80127;SDS011;69440;52.118;5.408;2024-01-30T01:26:19;13.20;;;6.85;;
80127;SDS011;69440;52.118;5.408;2024-01-30T01:28:46;12.55;;;7.50;;
80127;SDS011;69440;52.118;5.408;2024-01-30T01:31:12;11.77;;;6.68;;
80127;SDS011;69440;52.118;5.408;2024-01-30T01:33:39;12.07;;;6.15;;
80127;SDS011;69440;52.118;5.408;2024-01-30T01:36:06;14.30;;;6.78;;
80127;SDS011;69440;52.118;5.408;2024-01-30T01:38:32;13.30;;;7.30;;
80127;SDS011;69440;52.118;5.408;2024-01-30T01:40:59;14.48;;;6.93;;
80127;SDS011;69440;52.118;5.408;2024-01-30T01:43:25;12.70;;;7.18;;
80127;SDS011;69440;52.118;5.408;2024-01-30T01:45:52;10.48;;;6.20;;
80127;SDS011;69440;52.118;5.408;2024-01-30T01:48:18;13.27;;;6.60;;
80127;SDS011;69440;52.118;5.408;2024-01-30T01:50:45;11.30;;;5.97;;
80127;SDS011;69440;52.118;5.408;2024-01-30T01:53:12;11.48;;;6.68;;
80127;SDS011;69440;52.118;5.408;2024-01-30T01:55:39;11.40;;;6.60;;
80127;SDS011;69440;52.118;5.408;2024-01-30T01:58:05;13.02;;;6.47;;
80127;SDS011;69440;52.118;5.408;2024-01-30T02:00:35;13.18;;;6.50;;
80127;SDS011;69440;52.118;5.408;2024-01-30T02:03:06;14.90;;;6.03;;
80127;SDS011;69440;52.118;5.408;2024-01-30T02:05:33;14.00;;;6.05;;
80127;SDS011;69440;52.118;5.408;2024-01-30T02:08:00;11.95;;;6.22;;
80127;SDS011;69440;52.118;5.408;2024-01-30T02:10:27;10.00;;;5.90;;
80127;SDS011;69440;52.118;5.408;2024-01-30T02:12:54;10.70;;;5.82;;
80127;SDS011;69440;52.118;5.408;2024-01-30T02:15:20;9.40;;;5.70;;
80127;SDS011;69440;52.118;5.408;2024-01-30T02:17:47;9.80;;;6.40;;
80127;SDS011;69440;52.118;5.408;2024-01-30T02:20:13;12.77;;;6.68;;
80127;SDS011;69440;52.118;5.408;2024-01-30T02:22:40;9.88;;;5.57;;
80127;SDS011;69440;52.118;5.408;2024-01-30T02:25:07;11.27;;;5.97;;
80127;SDS011;69440;52.118;5.408;2024-01-30T02:27:34;11.23;;;6.50;;
80127;SDS011;69440;52.118;5.408;2024-01-30T02:30:00;8.90;;;5.68;;
80127;SDS011;69440;52.118;5.408;2024-01-30T02:32:27;9.70;;;5.65;;
80127;SDS011;69440;52.118;5.408;2024-01-30T02:34:53;11.27;;;6.30;;
80127;SDS011;69440;52.118;5.408;2024-01-30T02:37:20;12.15;;;5.93;;
80127;SDS011;69440;52.118;5.408;2024-01-30T02:39:46;11.50;;;5.75;;
80127;SDS011;69440;52.118;5.408;2024-01-30T02:42:13;13.27;;;6.75;;
80127;SDS011;69440;52.118;5.408;2024-01-30T02:44:39;12.55;;;5.95;;
80127;SDS011;69440;52.118;5.408;2024-01-30T02:47:06;9.68;;;5.50;;
80127;SDS011;69440;52.118;5.408;2024-01-30T02:49:32;11.63;;;6.60;;
80127;SDS011;69440;52.118;5.408;2024-01-30T02:51:59;10.20;;;6.22;;
80127;SDS011;69440;52.118;5.408;2024-01-30T02:54:26;14.57;;;6.35;;
80127;SDS011;69440;52.118;5.408;2024-01-30T02:56:52;15.00;;;8.05;;
80127;SDS011;69440;52.118;5.408;2024-01-30T02:59:19;15.15;;;7.45;;
80127;SDS011;69440;52.118;5.408;2024-01-30T03:01:45;17.50;;;8.25;;
80127;SDS011;69440;52.118;5.408;2024-01-30T03:04:13;13.95;;;7.97;;
80127;SDS011;69440;52.118;5.408;2024-01-30T03:06:44;14.75;;;7.85;;
80127;SDS011;69440;52.118;5.408;2024-01-30T03:09:11;16.20;;;8.52;;
80127;SDS011;69440;52.118;5.408;2024-01-30T03:11:37;15.20;;;8.60;;
80127;SDS011;69440;52.118;5.408;2024-01-30T03:14:04;13.90;;;8.60;;
80127;SDS011;69440;52.118;5.408;2024-01-30T03:16:30;16.05;;;7.95;;
80127;SDS011;69440;52.118;5.408;2024-01-30T03:18:57;18.65;;;8.57;;
80127;SDS011;69440;52.118;5.408;2024-01-30T03:21:24;14.13;;;7.78;;
80127;SDS011;69440;52.118;5.408;2024-01-30T03:23:50;13.63;;;7.88;;
80127;SDS011;69440;52.118;5.408;2024-01-30T03:26:17;13.90;;;7.85;;
80127;SDS011;69440;52.118;5.408;2024-01-30T03:28:43;12.05;;;7.10;;
80127;SDS011;69440;52.118;5.408;2024-01-30T03:31:10;12.02;;;6.88;;
80127;SDS011;69440;52.118;5.408;2024-01-30T03:33:36;11.68;;;7.03;;
80127;SDS011;69440;52.118;5.408;2024-01-30T03:36:04;10.95;;;6.32;;
80127;SDS011;69440;52.118;5.408;2024-01-30T03:38:31;13.43;;;6.43;;
80127;SDS011;69440;52.118;5.408;2024-01-30T03:40:59;10.18;;;5.78;;
80127;SDS011;69440;52.118;5.408;2024-01-30T03:43:26;11.07;;;6.43;;
80127;SDS011;69440;52.118;5.408;2024-01-30T03:45:53;12.73;;;6.50;;
80127;SDS011;69440;52.118;5.408;2024-01-30T03:48:20;12.18;;;7.10;;
80127;SDS011;69440;52.118;5.408;2024-01-30T03:50:47;8.48;;;5.43;;
80127;SDS011;69440;52.118;5.408;2024-01-30T03:53:14;12.90;;;6.45;;
80127;SDS011;69440;52.118;5.408;2024-01-30T03:55:40;12.60;;;5.88;;
80127;SDS011;69440;52.118;5.408;2024-01-30T03:58:07;8.57;;;5.68;;
80127;SDS011;69440;52.118;5.408;2024-01-30T04:00:33;9.45;;;5.85;;
80127;SDS011;69440;52.118;5.408;2024-01-30T04:02:59;8.88;;;5.18;;
80127;SDS011;69440;52.118;5.408;2024-01-30T04:05:26;8.90;;;4.93;;
80127;SDS011;69440;52.118;5.408;2024-01-30T04:07:52;13.13;;;5.70;;
80127;SDS011;69440;52.118;5.408;2024-01-30T04:10:19;11.57;;;5.38;;
80127;SDS011;69440;52.118;5.408;2024-01-30T04:12:45;8.52;;;5.25;;
80127;SDS011;69440;52.118;5.408;2024-01-30T04:15:12;10.45;;;5.85;;
80127;SDS011;69440;52.118;5.408;2024-01-30T04:17:42;8.48;;;4.93;;
80127;SDS011;69440;52.118;5.408;2024-01-30T04:20:29;9.68;;;5.30;;
80127;SDS011;69440;52.118;5.408;2024-01-30T04:22:56;10.43;;;4.72;;
80127;SDS011;69440;52.118;5.408;2024-01-30T04:25:22;8.45;;;4.70;;
80127;SDS011;69440;52.118;5.408;2024-01-30T04:27:49;8.80;;;5.20;;
80127;SDS011;69440;52.118;5.408;2024-01-30T04:30:15;8.85;;;5.10;;
80127;SDS011;69440;52.118;5.408;2024-01-30T04:32:43;9.63;;;5.63;;
80127;SDS011;69440;52.118;5.408;2024-01-30T04:35:10;10.27;;;5.43;;
80127;SDS011;69440;52.118;5.408;2024-01-30T04:37:37;14.43;;;5.60;;
80127;SDS011;69440;52.118;5.408;2024-01-30T04:40:04;9.63;;;5.10;;
80127;SDS011;69440;52.118;5.408;2024-01-30T04:42:31;12.40;;;4.90;;
80127;SDS011;69440;52.118;5.408;2024-01-30T04:44:58;8.35;;;4.78;;
80127;SDS011;69440;52.118;5.408;2024-01-30T04:47:24;9.48;;;5.18;;
80127;SDS011;69440;52.118;5.408;2024-01-30T04:49:51;8.57;;;5.28;;
80127;SDS011;69440;52.118;5.408;2024-01-30T04:52:18;11.02;;;5.45;;
80127;SDS011;69440;52.118;5.408;2024-01-30T04:54:44;10.88;;;5.57;;
80127;SDS011;69440;52.118;5.408;2024-01-30T04:57:11;9.13;;;5.18;;
80127;SDS011;69440;52.118;5.408;2024-01-30T04:59:38;10.73;;;5.72;;
80127;SDS011;69440;52.118;5.408;2024-01-30T05:02:05;8.50;;;4.75;;
80127;SDS011;69440;52.118;5.408;2024-01-30T05:04:32;8.57;;;5.13;;
80127;SDS011;69440;52.118;5.408;2024-01-30T05:06:59;9.18;;;5.25;;
80127;SDS011;69440;52.118;5.408;2024-01-30T05:09:25;10.18;;;4.57;;
80127;SDS011;69440;52.118;5.408;2024-01-30T05:11:52;9.95;;;5.40;;
80127;SDS011;69440;52.118;5.408;2024-01-30T05:14:18;7.13;;;4.72;;
80127;SDS011;69440;52.118;5.408;2024-01-30T05:16:45;8.98;;;5.07;;
80127;SDS011;69440;52.118;5.408;2024-01-30T05:19:13;7.47;;;4.63;;
80127;SDS011;69440;52.118;5.408;2024-01-30T05:21:41;9.00;;;5.30;;
80127;SDS011;69440;52.118;5.408;2024-01-30T05:24:07;6.80;;;4.47;;
80127;SDS011;69440;52.118;5.408;2024-01-30T05:26:36;8.18;;;4.90;;
80127;SDS011;69440;52.118;5.408;2024-01-30T05:29:02;8.90;;;5.03;;
80127;SDS011;69440;52.118;5.408;2024-01-30T05:31:29;10.32;;;5.30;;
80127;SDS011;69440;52.118;5.408;2024-01-30T05:33:56;11.35;;;4.85;;
80127;SDS011;69440;52.118;5.408;2024-01-30T05:36:23;9.25;;;5.28;;
80127;SDS011;69440;52.118;5.408;2024-01-30T05:38:55;8.90;;;4.68;;
80127;SDS011;69440;52.118;5.408;2024-01-30T05:41:22;9.32;;;5.03;;
80127;SDS011;69440;52.118;5.408;2024-01-30T05:43:57;9.57;;;4.95;;
80127;SDS011;69440;52.118;5.408;2024-01-30T05:46:44;10.88;;;5.20;;
80127;SDS011;69440;52.118;5.408;2024-01-30T05:49:11;8.45;;;4.85;;
80127;SDS011;69440;52.118;5.408;2024-01-30T05:51:37;8.25;;;5.00;;
80127;SDS011;69440;52.118;5.408;2024-01-30T05:54:04;7.68;;;4.90;;
80127;SDS011;69440;52.118;5.408;2024-01-30T05:56:30;9.40;;;4.93;;
80127;SDS011;69440;52.118;5.408;2024-01-30T05:58:57;8.20;;;4.82;;
80127;SDS011;69440;52.118;5.408;2024-01-30T06:01:23;8.80;;;5.20;;
80127;SDS011;69440;52.118;5.408;2024-01-30T06:03:50;10.90;;;5.55;;
80127;SDS011;69440;52.118;5.408;2024-01-30T06:06:16;9.93;;;4.95;;
80127;SDS011;69440;52.118;5.408;2024-01-30T06:08:43;9.75;;;5.00;;
80127;SDS011;69440;52.118;5.408;2024-01-30T06:11:10;8.02;;;4.72;;
80127;SDS011;69440;52.118;5.408;2024-01-30T06:13:38;9.98;;;4.95;;
80127;SDS011;69440;52.118;5.408;2024-01-30T06:16:04;9.40;;;4.95;;
80127;SDS011;69440;52.118;5.408;2024-01-30T06:18:32;11.35;;;5.18;;
80127;SDS011;69440;52.118;5.408;2024-01-30T06:20:58;9.68;;;5.00;;
80127;SDS011;69440;52.118;5.408;2024-01-30T06:23:25;11.15;;;5.20;;
80127;SDS011;69440;52.118;5.408;2024-01-30T06:25:51;13.43;;;4.95;;
80127;SDS011;69440;52.118;5.408;2024-01-30T06:28:17;9.02;;;4.78;;
80127;SDS011;69440;52.118;5.408;2024-01-30T06:30:44;8.90;;;4.82;;
80127;SDS011;69440;52.118;5.408;2024-01-30T06:33:14;10.38;;;5.10;;
80127;SDS011;69440;52.118;5.408;2024-01-30T06:35:40;9.80;;;5.38;;
80127;SDS011;69440;52.118;5.408;2024-01-30T06:38:10;10.25;;;5.30;;
80127;SDS011;69440;52.118;5.408;2024-01-30T06:40:37;8.13;;;5.03;;
80127;SDS011;69440;52.118;5.408;2024-01-30T06:43:04;9.40;;;4.80;;
80127;SDS011;69440;52.118;5.408;2024-01-30T06:45:31;10.52;;;5.90;;
80127;SDS011;69440;52.118;5.408;2024-01-30T06:47:57;9.65;;;4.78;;
80127;SDS011;69440;52.118;5.408;2024-01-30T06:50:24;8.65;;;4.88;;
80127;SDS011;69440;52.118;5.408;2024-01-30T06:52:51;10.45;;;5.03;;
80127;SDS011;69440;52.118;5.408;2024-01-30T06:55:18;8.07;;;4.80;;
80127;SDS011;69440;52.118;5.408;2024-01-30T06:57:44;9.57;;;5.05;;
80127;SDS011;69440;52.118;5.408;2024-01-30T07:00:13;9.63;;;5.13;;
80127;SDS011;69440;52.118;5.408;2024-01-30T07:02:40;9.45;;;5.40;;
80127;SDS011;69440;52.118;5.408;2024-01-30T07:05:07;6.93;;;4.80;;
80127;SDS011;69440;52.118;5.408;2024-01-30T07:07:36;9.55;;;5.07;;
80127;SDS011;69440;52.118;5.408;2024-01-30T07:10:02;9.35;;;5.22;;
80127;SDS011;69440;52.118;5.408;2024-01-30T07:12:30;9.90;;;5.15;;
80127;SDS011;69440;52.118;5.408;2024-01-30T07:14:57;9.07;;;4.80;;
80127;SDS011;69440;52.118;5.408;2024-01-30T07:17:25;9.75;;;5.00;;
80127;SDS011;69440;52.118;5.408;2024-01-30T07:19:52;8.98;;;5.10;;
80127;SDS011;69440;52.118;5.408;2024-01-30T07:22:19;7.93;;;4.90;;
80127;SDS011;69440;52.118;5.408;2024-01-30T07:24:45;10.82;;;5.55;;
80127;SDS011;69440;52.118;5.408;2024-01-30T07:27:14;9.75;;;5.45;;
80127;SDS011;69440;52.118;5.408;2024-01-30T07:29:40;11.15;;;5.38;;
80127;SDS011;69440;52.118;5.408;2024-01-30T07:32:07;8.70;;;4.90;;
80127;SDS011;69440;52.118;5.408;2024-01-30T07:34:33;8.50;;;4.97;;
80127;SDS011;69440;52.118;5.408;2024-01-30T07:37:14;7.45;;;4.72;;
80127;SDS011;69440;52.118;5.408;2024-01-30T07:39:41;10.00;;;5.10;;
80127;SDS011;69440;52.118;5.408;2024-01-30T07:42:09;9.63;;;4.78;;
80127;SDS011;69440;52.118;5.408;2024-01-30T07:44:35;10.80;;;5.03;;
80127;SDS011;69440;52.118;5.408;2024-01-30T07:47:02;8.15;;;4.75;;
80127;SDS011;69440;52.118;5.408;2024-01-30T07:49:29;7.80;;;4.60;;
80127;SDS011;69440;52.118;5.408;2024-01-30T07:51:55;9.10;;;4.55;;
80127;SDS011;69440;52.118;5.408;2024-01-30T07:54:24;9.23;;;4.85;;
80127;SDS011;69440;52.118;5.408;2024-01-30T07:56:51;10.07;;;4.95;;
80127;SDS011;69440;52.118;5.408;2024-01-30T07:59:17;10.73;;;4.90;;
80127;SDS011;69440;52.118;5.408;2024-01-30T08:02:04;9.05;;;5.07;;
80127;SDS011;69440;52.118;5.408;2024-01-30T08:04:30;9.27;;;4.78;;
80127;SDS011;69440;52.118;5.408;2024-01-30T08:06:57;9.25;;;4.75;;
80127;SDS011;69440;52.118;5.408;2024-01-30T08:09:24;6.40;;;4.60;;
80127;SDS011;69440;52.118;5.408;2024-01-30T08:11:50;9.38;;;4.97;;
80127;SDS011;69440;52.118;5.408;2024-01-30T08:14:17;9.85;;;4.63;;
80127;SDS011;69440;52.118;5.408;2024-01-30T08:16:43;8.32;;;4.82;;
80127;SDS011;69440;52.118;5.408;2024-01-30T08:19:10;8.43;;;4.93;;
80127;SDS011;69440;52.118;5.408;2024-01-30T08:21:36;9.45;;;5.38;;
80127;SDS011;69440;52.118;5.408;2024-01-30T08:24:05;8.15;;;4.53;;
80127;SDS011;69440;52.118;5.408;2024-01-30T08:26:32;10.80;;;5.03;;
80127;SDS011;69440;52.118;5.408;2024-01-30T08:28:59;9.50;;;4.95;;
80127;SDS011;69440;52.118;5.408;2024-01-30T08:31:26;11.60;;;5.25;;
80127;SDS011;69440;52.118;5.408;2024-01-30T08:33:52;9.93;;;4.72;;
80127;SDS011;69440;52.118;5.408;2024-01-30T08:36:19;11.32;;;5.10;;
80127;SDS011;69440;52.118;5.408;2024-01-30T08:38:46;13.25;;;5.03;;
80127;SDS011;69440;52.118;5.408;2024-01-30T08:41:13;10.80;;;5.47;;
80127;SDS011;69440;52.118;5.408;2024-01-30T08:43:39;11.50;;;5.20;;
80127;SDS011;69440;52.118;5.408;2024-01-30T08:46:06;12.27;;;4.85;;
80127;SDS011;69440;52.118;5.408;2024-01-30T08:48:33;11.98;;;5.28;;
80127;SDS011;69440;52.118;5.408;2024-01-30T08:50:59;11.88;;;5.40;;
80127;SDS011;69440;52.118;5.408;2024-01-30T08:53:26;11.02;;;4.82;;
80127;SDS011;69440;52.118;5.408;2024-01-30T08:55:52;13.90;;;5.20;;
80127;SDS011;69440;52.118;5.408;2024-01-30T08:58:18;10.55;;;4.80;;
80127;SDS011;69440;52.118;5.408;2024-01-30T09:00:45;11.07;;;4.72;;
80127;SDS011;69440;52.118;5.408;2024-01-30T09:03:12;13.27;;;6.03;;
80127;SDS011;69440;52.118;5.408;2024-01-30T09:05:38;13.20;;;5.15;;
80127;SDS011;69440;52.118;5.408;2024-01-30T09:08:05;11.57;;;5.30;;
80127;SDS011;69440;52.118;5.408;2024-01-30T09:10:32;13.48;;;5.55;;
80127;SDS011;69440;52.118;5.408;2024-01-30T09:12:58;10.98;;;5.10;;
80127;SDS011;69440;52.118;5.408;2024-01-30T09:15:25;14.00;;;5.03;;
80127;SDS011;69440;52.118;5.408;2024-01-30T09:17:52;10.85;;;4.82;;
80127;SDS011;69440;52.118;5.408;2024-01-30T09:20:18;11.45;;;4.50;;
80127;SDS011;69440;52.118;5.408;2024-01-30T09:22:46;13.20;;;4.65;;
80127;SDS011;69440;52.118;5.408;2024-01-30T09:25:13;10.23;;;4.72;;
80127;SDS011;69440;52.118;5.408;2024-01-30T09:27:39;10.18;;;4.70;;
80127;SDS011;69440;52.118;5.408;2024-01-30T09:30:06;10.80;;;5.03;;
80127;SDS011;69440;52.118;5.408;2024-01-30T09:32:33;12.18;;;4.90;;
80127;SDS011;69440;52.118;5.408;2024-01-30T09:35:00;10.75;;;4.50;;
80127;SDS011;69440;52.118;5.408;2024-01-30T09:37:26;12.85;;;4.90;;
80127;SDS011;69440;52.118;5.408;2024-01-30T09:39:53;11.15;;;4.85;;
80127;SDS011;69440;52.118;5.408;2024-01-30T09:42:35;9.05;;;4.32;;
80127;SDS011;69440;52.118;5.408;2024-01-30T09:45:03;11.15;;;5.50;;
80127;SDS011;69440;52.118;5.408;2024-01-30T09:47:32;10.45;;;4.70;;
80127;SDS011;69440;52.118;5.408;2024-01-30T09:50:06;11.25;;;4.78;;
80127;SDS011;69440;52.118;5.408;2024-01-30T09:52:33;9.80;;;4.78;;
80127;SDS011;69440;52.118;5.408;2024-01-30T09:54:59;12.50;;;5.32;;
80127;SDS011;69440;52.118;5.408;2024-01-30T09:57:27;10.45;;;5.13;;
80127;SDS011;69440;52.118;5.408;2024-01-30T09:59:54;10.60;;;5.25;;
80127;SDS011;69440;52.118;5.408;2024-01-30T10:02:21;10.23;;;5.25;;
80127;SDS011;69440;52.118;5.408;2024-01-30T10:04:48;9.80;;;5.05;;
80127;SDS011;69440;52.118;5.408;2024-01-30T10:07:16;11.15;;;5.10;;
80127;SDS011;69440;52.118;5.408;2024-01-30T10:09:43;12.02;;;5.35;;
80127;SDS011;69440;52.118;5.408;2024-01-30T10:12:11;8.75;;;4.82;;
80127;SDS011;69440;52.118;5.408;2024-01-30T10:14:38;10.77;;;4.93;;
80127;SDS011;69440;52.118;5.408;2024-01-30T10:17:07;10.35;;;5.30;;
80127;SDS011;69440;52.118;5.408;2024-01-30T10:19:46;10.60;;;4.80;;
80127;SDS011;69440;52.118;5.408;2024-01-30T10:22:13;10.93;;;5.30;;
80127;SDS011;69440;52.118;5.408;2024-01-30T10:24:40;10.40;;;4.45;;
80127;SDS011;69440;52.118;5.408;2024-01-30T10:27:06;9.82;;;4.43;;
80127;SDS011;69440;52.118;5.408;2024-01-30T10:29:33;12.05;;;4.90;;
80127;SDS011;69440;52.118;5.408;2024-01-30T10:32:03;9.98;;;4.90;;
80127;SDS011;69440;52.118;5.408;2024-01-30T10:34:31;10.52;;;4.78;;
80127;SDS011;69440;52.118;5.408;2024-01-30T10:37:10;12.73;;;5.00;;
80127;SDS011;69440;52.118;5.408;2024-01-30T10:39:41;11.82;;;4.78;;
80127;SDS011;69440;52.118;5.408;2024-01-30T10:42:18;11.43;;;4.82;;
80127;SDS011;69440;52.118;5.408;2024-01-30T10:44:48;9.38;;;4.88;;
80127;SDS011;69440;52.118;5.408;2024-01-30T10:47:19;7.88;;;4.72;;
80127;SDS011;69440;52.118;5.408;2024-01-30T10:49:52;11.77;;;5.30;;
80127;SDS011;69440;52.118;5.408;2024-01-30T10:52:21;11.60;;;4.80;;
80127;SDS011;69440;52.118;5.408;2024-01-30T10:54:50;8.15;;;4.25;;
80127;SDS011;69440;52.118;5.408;2024-01-30T10:57:18;9.25;;;5.10;;
80127;SDS011;69440;52.118;5.408;2024-01-30T10:59:45;10.13;;;4.38;;
80127;SDS011;69440;52.118;5.408;2024-01-30T11:02:13;8.82;;;4.55;;
80127;SDS011;69440;52.118;5.408;2024-01-30T11:04:40;8.02;;;4.20;;
80127;SDS011;69440;52.118;5.408;2024-01-30T11:07:17;10.93;;;4.45;;
80127;SDS011;69440;52.118;5.408;2024-01-30T11:09:50;6.20;;;3.97;;
80127;SDS011;69440;52.118;5.408;2024-01-30T11:12:22;8.80;;;4.18;;
80127;SDS011;69440;52.118;5.408;2024-01-30T11:14:50;7.93;;;4.78;;
80127;SDS011;69440;52.118;5.408;2024-01-30T11:17:39;9.32;;;4.40;;
80127;SDS011;69440;52.118;5.408;2024-01-30T11:20:10;9.50;;;4.28;;
80127;SDS011;69440;52.118;5.408;2024-01-30T11:23:02;8.35;;;4.22;;
80127;SDS011;69440;52.118;5.408;2024-01-30T11:25:32;13.45;;;4.50;;
80127;SDS011;69440;52.118;5.408;2024-01-30T11:27:59;9.48;;;3.90;;
80127;SDS011;69440;52.118;5.408;2024-01-30T11:30:26;9.27;;;4.28;;
80127;SDS011;69440;52.118;5.408;2024-01-30T11:33:13;6.63;;;4.05;;
80127;SDS011;69440;52.118;5.408;2024-01-30T11:35:41;8.20;;;3.63;;
80127;SDS011;69440;52.118;5.408;2024-01-30T11:38:13;4.80;;;2.90;;
80127;SDS011;69440;52.118;5.408;2024-01-30T11:40:40;6.00;;;2.22;;
80127;SDS011;69440;52.118;5.408;2024-01-30T11:43:08;5.93;;;2.30;;
80127;SDS011;69440;52.118;5.408;2024-01-30T11:45:36;6.75;;;2.17;;
80127;SDS011;69440;52.118;5.408;2024-01-30T11:48:03;5.80;;;2.08;;
80127;SDS011;69440;52.118;5.408;2024-01-30T11:50:31;5.75;;;1.98;;
80127;SDS011;69440;52.118;5.408;2024-01-30T11:52:59;5.88;;;1.98;;
80127;SDS011;69440;52.118;5.408;2024-01-30T11:55:26;5.95;;;1.55;;
80127;SDS011;69440;52.118;5.408;2024-01-30T11:57:59;5.68;;;1.58;;
80127;SDS011;69440;52.118;5.408;2024-01-30T12:00:26;5.05;;;1.52;;
80127;SDS011;69440;52.118;5.408;2024-01-30T12:02:53;3.10;;;1.02;;
80127;SDS011;69440;52.118;5.408;2024-01-30T12:07:51;3.42;;;1.08;;
80127;SDS011;69440;52.118;5.408;2024-01-30T12:10:18;4.95;;;1.30;;
80127;SDS011;69440;52.118;5.408;2024-01-30T12:12:46;7.10;;;1.20;;
80127;SDS011;69440;52.118;5.408;2024-01-30T12:15:15;3.30;;;1.02;;
80127;SDS011;69440;52.118;5.408;2024-01-30T12:17:42;3.95;;;1.20;;
80127;SDS011;69440;52.118;5.408;2024-01-30T12:20:09;3.45;;;1.15;;
80127;SDS011;69440;52.118;5.408;2024-01-30T12:22:41;4.57;;;1.40;;
80127;SDS011;69440;52.118;5.408;2024-01-30T12:25:09;3.63;;;1.70;;
80127;SDS011;69440;52.118;5.408;2024-01-30T12:27:41;5.68;;;1.75;;
80127;SDS011;69440;52.118;5.408;2024-01-30T12:30:10;5.30;;;1.80;;
80127;SDS011;69440;52.118;5.408;2024-01-30T12:32:41;4.75;;;1.80;;
80127;SDS011;69440;52.118;5.408;2024-01-30T12:35:10;7.63;;;2.00;;
80127;SDS011;69440;52.118;5.408;2024-01-30T12:37:40;7.20;;;1.90;;
80127;SDS011;69440;52.118;5.408;2024-01-30T12:40:08;8.25;;;2.20;;
80127;SDS011;69440;52.118;5.408;2024-01-30T12:42:36;4.65;;;1.88;;
80127;SDS011;69440;52.118;5.408;2024-01-30T12:45:03;4.60;;;1.55;;
80127;SDS011;69440;52.118;5.408;2024-01-30T12:47:30;2.97;;;1.55;;
80127;SDS011;69440;52.118;5.408;2024-01-30T12:49:58;5.15;;;1.50;;
80127;SDS011;69440;52.118;5.408;2024-01-30T12:52:24;4.57;;;1.63;;
80127;SDS011;69440;52.118;5.408;2024-01-30T12:54:51;7.53;;;1.70;;
80127;SDS011;69440;52.118;5.408;2024-01-30T12:57:18;6.50;;;1.52;;
80127;SDS011;69440;52.118;5.408;2024-01-30T12:59:45;4.45;;;1.70;;
80127;SDS011;69440;52.118;5.408;2024-01-30T13:02:12;5.43;;;2.10;;
80127;SDS011;69440;52.118;5.408;2024-01-30T13:04:39;3.28;;;2.00;;
80127;SDS011;69440;52.118;5.408;2024-01-30T13:07:06;6.00;;;1.85;;
80127;SDS011;69440;52.118;5.408;2024-01-30T13:09:33;5.43;;;1.60;;
80127;SDS011;69440;52.118;5.408;2024-01-30T13:11:59;2.72;;;1.42;;
80127;SDS011;69440;52.118;5.408;2024-01-30T13:14:26;4.95;;;1.38;;
80127;SDS011;69440;52.118;5.408;2024-01-30T13:16:52;5.00;;;1.42;;
80127;SDS011;69440;52.118;5.408;2024-01-30T13:19:19;3.45;;;1.30;;
80127;SDS011;69440;52.118;5.408;2024-01-30T13:21:46;2.42;;;0.98;;
80127;SDS011;69440;52.118;5.408;2024-01-30T13:24:14;3.83;;;1.08;;
80127;SDS011;69440;52.118;5.408;2024-01-30T13:26:42;2.95;;;1.02;;
80127;SDS011;69440;52.118;5.408;2024-01-30T13:29:09;4.70;;;0.90;;
80127;SDS011;69440;52.118;5.408;2024-01-30T13:31:35;5.75;;;1.10;;
80127;SDS011;69440;52.118;5.408;2024-01-30T13:34:02;3.47;;;0.80;;
80127;SDS011;69440;52.118;5.408;2024-01-30T13:36:33;3.40;;;1.02;;
80127;SDS011;69440;52.118;5.408;2024-01-30T13:39:00;1.55;;;0.90;;
80127;SDS011;69440;52.118;5.408;2024-01-30T13:41:26;3.63;;;1.05;;
80127;SDS011;69440;52.118;5.408;2024-01-30T13:43:53;3.33;;;0.93;;
80127;SDS011;69440;52.118;5.408;2024-01-30T13:46:20;4.65;;;1.63;;
80127;SDS011;69440;52.118;5.408;2024-01-30T13:48:46;3.30;;;0.82;;
80127;SDS011;69440;52.118;5.408;2024-01-30T13:51:13;4.80;;;0.98;;
80127;SDS011;69440;52.118;5.408;2024-01-30T13:53:40;1.27;;;0.70;;
80127;SDS011;69440;52.118;5.408;2024-01-30T13:56:07;2.60;;;1.02;;
80127;SDS011;69440;52.118;5.408;2024-01-30T13:58:33;2.00;;;0.70;;
80127;SDS011;69440;52.118;5.408;2024-01-30T14:01:02;2.15;;;0.90;;
80127;SDS011;69440;52.118;5.408;2024-01-30T14:03:29;2.35;;;0.60;;
80127;SDS011;69440;52.118;5.408;2024-01-30T14:05:55;2.88;;;0.70;;
80127;SDS011;69440;52.118;5.408;2024-01-30T14:08:22;1.90;;;0.80;;
80127;SDS011;69440;52.118;5.408;2024-01-30T14:10:52;2.00;;;0.73;;
80127;SDS011;69440;52.118;5.408;2024-01-30T14:13:19;2.38;;;0.70;;
80127;SDS011;69440;52.118;5.408;2024-01-30T14:15:45;2.92;;;0.90;;
80127;SDS011;69440;52.118;5.408;2024-01-30T14:18:12;2.58;;;0.90;;
80127;SDS011;69440;52.118;5.408;2024-01-30T14:20:41;2.75;;;0.75;;
80127;SDS011;69440;52.118;5.408;2024-01-30T14:23:08;3.88;;;0.60;;
80127;SDS011;69440;52.118;5.408;2024-01-30T14:25:35;3.88;;;0.80;;
80127;SDS011;69440;52.118;5.408;2024-01-30T14:28:01;3.15;;;0.73;;
80127;SDS011;69440;52.118;5.408;2024-01-30T14:30:30;3.58;;;0.82;;
80127;SDS011;69440;52.118;5.408;2024-01-30T14:32:56;2.67;;;0.70;;
80127;SDS011;69440;52.118;5.408;2024-01-30T14:35:23;5.18;;;0.80;;
80127;SDS011;69440;52.118;5.408;2024-01-30T14:37:49;1.60;;;0.88;;
80127;SDS011;69440;52.118;5.408;2024-01-30T14:40:16;3.17;;;0.70;;
80127;SDS011;69440;52.118;5.408;2024-01-30T14:42:43;3.33;;;0.80;;
80127;SDS011;69440;52.118;5.408;2024-01-30T14:45:10;4.93;;;1.05;;